Etusivu
METAR-TAF:

METAR-TAF

Lentoasemat :

Bellaire, Michigan, Yhdysvallat

Leveyspiiri: 44-59-18N, Pituuspiiri: 085-11-54W, korkeus merenpinnasta: 190 m

Tämänhetkinen sää

Tämä raportti tehtiin 21 minuuttia sitten, kello 13.16 UTC
Tuuli 5 kn etelästä/lounaasta
Lämpötila 24°C
Kosteus 74%
Ilmanpaine 1011 hPa
Näkyvyys: 16.1 km
selkeää

METAR: KACB 181316Z AUTO 20005KT 10SM CLR 24/19 A2985 RMK AO2 T02430193

Aika: 09:37 (13:37 UTC)


TAF: puuttuu

Säähavainnot ja -ennusteet yli 4000 lentoasemalta (METAR- ja TAF-raportit).

Käytössä olevat sääasemat on merkitty karttaan keltaisilla ja punaisilla pisteillä.

Aseta hiiri pisteen päälle nähdäksesi sääaseman nimen.

Klikkaa sitten nähdäksesi säähavainnot ja -ennusteet.

Kartan vaihtaminen: klikkaa mustalla rastilla varustettuja vihreitä pisteitä, niin voit zoomata sisään; viivalla varustettua vihreää pistettä, niin voit zoomata ulos tai vihreitä nuolia, niin pääset viereisille kartoille.


METAR-TAF: